»·PEaware :: N331FT KSBA-L18

N331FT :: KSBA-L18

FLIGHT INFORMATION

Flight Status: Arrived
Operator: Privately registered:
United States
More flights under this callsign
Pilot: Vanya D. (11864)
Aircraft: Unknown
(EPIC)
More flights by this aircraft type
Origin: KSBA Santa Barbara Mun
United States
Destination: L18 Fallbrook Community
United States
More flights between these airports :: More routes between these airports
Route: DIRECT
File this flight plan on PilotEdge
Remarks:
Altitude:
(Current/Filed)
17,500ft
Speed:
(Current/Filed)
260kts
Departed: 06-Feb-19 05:02 PM
Arrived: 06-Feb-19 05:45 PM
Distance/Time
Traveled:
144nm/0:43
Distance/Time
To Go:
Arrived

Flight Plot

Page will automatically refresh every two minutes.

Flight plan parsing failed; only flown route is shown


Map Options




Map Legend


Flown Route
Filed Route
Departure Airport
Arrival Airport
Navaid (VOR, NDB)
Fix

Horizontal Profiles

Position Reports

Time Latitude Longitude Heading Altitude Ground
Speed
06-Feb-19 16:39 34.422650 -119.835587 340 10ft 0kts
06-Feb-19 16:40 34.422650 -119.835587 340 10ft 0kts
06-Feb-19 16:41 34.422650 -119.835587 340 10ft 0kts
06-Feb-19 16:42 34.422650 -119.835587 340 10ft 0kts
06-Feb-19 16:43 34.422650 -119.835587 340 10ft 0kts
06-Feb-19 16:44 34.422650 -119.835587 340 10ft 0kts
06-Feb-19 16:45 34.422650 -119.835587 340 10ft 0kts
06-Feb-19 16:46 34.422650 -119.835587 340 10ft 0kts
06-Feb-19 16:47 34.422650 -119.835587 340 10ft 0kts
06-Feb-19 16:48 34.422650 -119.835587 340 10ft 0kts
06-Feb-19 16:49 34.422650 -119.835587 340 10ft 0kts
06-Feb-19 16:50 34.422650 -119.835587 340 10ft 0kts
06-Feb-19 16:51 34.422650 -119.835587 340 10ft 0kts
06-Feb-19 16:52 34.422836 -119.836107 266 10ft 0kts
06-Feb-19 16:53 34.422836 -119.836107 266 10ft 0kts
06-Feb-19 16:54 34.422836 -119.836107 266 10ft 0kts
06-Feb-19 16:55 34.422837 -119.836107 266 10ft 0kts
06-Feb-19 16:56 34.425847 -119.838089 347 11ft 16kts
06-Feb-19 16:57 34.426745 -119.835539 86 10ft 15kts
06-Feb-19 16:58 34.427045 -119.834603 355 10ft 0kts
06-Feb-19 16:59 34.427045 -119.834603 355 10ft 0kts
06-Feb-19 17:00 34.427045 -119.834603 357 10ft 0kts
06-Feb-19 17:01 34.427133 -119.852449 272 641ft 143kts
06-Feb-19 17:02 34.422673 -119.913490 268 1503ft 205kts
06-Feb-19 17:03 34.392756 -119.961384 161 4702ft 228kts
06-Feb-19 17:04 34.375112 -119.898533 82 8730ft 209kts
06-Feb-19 17:05 34.378504 -119.845733 81 11843ft 199kts
06-Feb-19 17:06 34.382001 -119.779521 81 15327ft 196kts
06-Feb-19 17:07 34.370355 -119.714867 107 17509ft 236kts
06-Feb-19 17:08 34.347408 -119.630634 106 17505ft 284kts
06-Feb-19 17:09 34.326779 -119.550714 105 17501ft 299kts
06-Feb-19 17:10 34.303715 -119.452673 103 17498ft 305kts
06-Feb-19 17:11 34.282699 -119.352833 101 17496ft 307kts
06-Feb-19 17:12 34.263746 -119.251051 100 17489ft 307kts
06-Feb-19 17:13 34.235510 -119.156058 137 17493ft 305kts
06-Feb-19 17:14 34.198080 -119.064184 108 17485ft 308kts
06-Feb-19 17:15 34.174400 -118.978296 106 17504ft 307kts
06-Feb-19 17:16 34.148027 -118.880380 106 17506ft 305kts
06-Feb-19 17:17 34.121917 -118.783581 106 17508ft 302kts
06-Feb-19 17:18 34.095905 -118.687485 106 17516ft 300kts
06-Feb-19 17:19 34.070126 -118.592592 106 17527ft 300kts
06-Feb-19 17:20 34.048153 -118.511951 106 17501ft 301kts
06-Feb-19 17:21 34.022660 -118.418693 106 17494ft 301kts
06-Feb-19 17:22 34.002674 -118.345799 106 17491ft 301kts
06-Feb-19 17:23 33.985756 -118.284254 106 17488ft 300kts
06-Feb-19 17:24 33.959347 -118.188457 106 17489ft 300kts
06-Feb-19 17:25 33.932991 -118.093157 106 17485ft 300kts
06-Feb-19 17:26 33.915002 -118.028309 106 17483ft 300kts
06-Feb-19 17:27 33.895067 -117.956607 106 17481ft 300kts
06-Feb-19 17:28 33.867564 -117.857991 106 17483ft 299kts
06-Feb-19 17:30 33.818484 -117.682854 106 17490ft 299kts
06-Feb-19 17:31 33.798868 -117.613139 107 16898ft 304kts
06-Feb-19 17:32 33.771864 -117.517558 107 14854ft 297kts
06-Feb-19 17:33 33.746930 -117.425237 106 12658ft 286kts
06-Feb-19 17:34 33.723807 -117.336527 106 10479ft 278kts
06-Feb-19 17:35 33.703120 -117.256918 106 8470ft 272kts
06-Feb-19 17:37 33.665721 -117.185884 174 6244ft 266kts
06-Feb-19 17:38 33.594357 -117.192899 186 5002ft 245kts
06-Feb-19 17:39 33.533367 -117.199485 188 4723ft 202kts
06-Feb-19 17:40 33.481618 -117.212215 196 3446ft 180kts
06-Feb-19 17:41 33.442351 -117.222301 196 2811ft 128kts
06-Feb-19 17:42 33.407693 -117.233904 202 1948ft 126kts
06-Feb-19 17:43 33.381736 -117.241574 197 1217ft 88kts
06-Feb-19 17:44 33.360076 -117.248600 198 783ft 84kts
06-Feb-19 17:45 33.353153 -117.251046 13 712ft 12kts
06-Feb-19 17:46 33.355801 -117.250562 251 712ft 3kts
06-Feb-19 17:47 33.356859 -117.252134 198 712ft 5kts
06-Feb-19 17:48 33.355267 -117.252544 129 712ft 0kts
06-Feb-19 17:49 33.355267 -117.252544 129 712ft 0kts
06-Feb-19 17:50 33.355267 -117.252544 129 712ft 0kts

Navigation Log

Ident Type
Flight plan parsing failed, navigation log unavailable